LiveATC.Net - Listen to live air traffic control over the Internet!


ICAO: LFBZ  IATA: BIQ   Airport: Anglet Airport
City: Biarritz
Country: France   Continent: Europe
LFBZ METAR Weather: LFBZ 261500Z AUTO 12005KT 070V150 9999 ///CB 24/15 Q1011 TEMPO 16020G40KT 1500 TSRAGR BKN010 BKN040CB
LFBZ Flight Activity (FlightAware)

LFBZ Tower
Feed Status: UP   Listeners: 2
Listen right in your browser - requires Flash (in browser, requires Flash)
Click here to listen with your own player (launches your MP3 player)
LFBZ Tower Audio Archives

NOTICE

Unauthorized use prohibited. See LiveATC.net Terms of Service


Find LiveATC Audio Streams


Airport/ARTCC Code

Frequency Search
(e.g., 124.400, 128.75)
Site-wide search
 


Browse LiveATC Feeds
LiveATC Coverage Map
Top 50 LiveATC Feeds
Bad Weather Areas

LiveATC FAQ
Offer a LiveATC Feed
Contact LiveATC.net
Press Inquiries

LiveATC on iPhone
LiveATC on Android

Windows Phone
Windows 8/10

LiveATC Mobile
(Mobile browser)

ATC Audio Archives
Interesting Recordings

LiveATC Forums


Home Page
About LiveATC.net
Make a Donation
Terms of Use
Privacy Policy

Canadian Air Freqs

AIRMETs/SIGMETs

FAA Airport Status
Nat'l Airspace Status
Arrival Demand Charts


Server Software By:
Icecast.org
Liquidsoap